createdAt,value
2023-07-19T00:00:40.342Z,25.06
2023-07-19T00:03:06.833Z,25.13
2023-07-19T00:05:33.253Z,25.07
2023-07-19T00:08:00.039Z,25.08
2023-07-19T00:10:26.425Z,24.97
2023-07-19T00:12:56.601Z,24.97
2023-07-19T00:15:24.464Z,24.96
2023-07-19T00:20:17.302Z,24.95
2023-07-19T00:22:43.705Z,24.82
2023-07-19T00:25:10.230Z,24.75
2023-07-19T00:27:36.655Z,24.73
2023-07-19T00:30:03.210Z,24.77
2023-07-19T00:32:29.637Z,24.69
2023-07-19T00:34:56.036Z,24.66
2023-07-19T00:37:22.786Z,24.64
2023-07-19T00:39:49.834Z,24.67
2023-07-19T00:42:16.192Z,24.64
2023-07-19T00:44:43.266Z,24.64
2023-07-19T00:47:09.654Z,24.65
2023-07-19T00:49:36.409Z,24.57
2023-07-19T00:52:03.740Z,24.55
2023-07-19T00:54:31.394Z,24.56
2023-07-19T00:56:59.090Z,24.54
2023-07-19T00:59:27.544Z,24.55
2023-07-19T01:01:54.140Z,24.55
2023-07-19T01:04:20.559Z,24.53
2023-07-19T01:06:47.120Z,24.48
2023-07-19T01:09:14.695Z,24.47
2023-07-19T01:11:42.167Z,24.46
2023-07-19T01:14:09.238Z,24.44
2023-07-19T01:16:37.020Z,24.40
2023-07-19T01:19:04.325Z,24.40
2023-07-19T01:21:31.129Z,24.34
2023-07-19T01:23:57.671Z,24.33
2023-07-19T01:26:24.128Z,24.36
2023-07-19T01:28:50.494Z,24.31
2023-07-19T01:31:17.293Z,24.34
2023-07-19T01:33:44.295Z,24.29
2023-07-19T01:36:10.680Z,24.30
2023-07-19T01:38:37.151Z,24.30
2023-07-19T01:41:03.579Z,24.36
2023-07-19T01:43:30.401Z,24.37
2023-07-19T01:45:59.224Z,24.33
2023-07-19T01:48:26.048Z,24.31
2023-07-19T01:50:52.439Z,24.38
2023-07-19T01:53:19.340Z,24.39
2023-07-19T01:55:45.730Z,24.36
2023-07-19T01:58:12.636Z,24.37
2023-07-19T02:00:39.296Z,24.37
2023-07-19T02:03:05.823Z,24.37
2023-07-19T02:05:32.287Z,24.35
2023-07-19T02:07:58.667Z,24.32
2023-07-19T02:10:25.341Z,24.27
2023-07-19T02:12:51.758Z,24.16
2023-07-19T02:15:18.191Z,24.20
2023-07-19T02:17:44.611Z,24.13
2023-07-19T02:20:13.196Z,24.11
2023-07-19T02:22:40.523Z,24.13
2023-07-19T02:25:07.194Z,24.11
2023-07-19T02:27:33.582Z,24.07
2023-07-19T02:30:00.314Z,23.99
2023-07-19T02:32:26.732Z,23.83
2023-07-19T02:34:53.126Z,23.83
2023-07-19T02:37:19.524Z,23.64
2023-07-19T02:39:45.930Z,23.61
2023-07-19T02:42:12.416Z,23.35
2023-07-19T02:44:38.789Z,23.42
2023-07-19T02:47:05.628Z,23.43
2023-07-19T02:49:32.048Z,23.47
2023-07-19T02:51:58.427Z,23.41
2023-07-19T02:54:24.834Z,23.45
2023-07-19T02:56:51.201Z,23.48
2023-07-19T02:59:17.651Z,23.47
2023-07-19T03:01:44.143Z,23.51
2023-07-19T03:04:13.754Z,23.50
2023-07-19T03:06:40.548Z,23.51
2023-07-19T03:09:07.350Z,23.50
2023-07-19T03:11:33.806Z,23.47
2023-07-19T03:14:00.212Z,23.51
2023-07-19T03:16:26.676Z,23.50
2023-07-19T03:18:53.119Z,23.46
2023-07-19T03:21:21.525Z,23.49
2023-07-19T03:23:48.462Z,23.52
2023-07-19T03:26:14.853Z,23.48
2023-07-19T03:28:41.434Z,23.55
2023-07-19T03:31:12.498Z,23.49
2023-07-19T03:33:40.081Z,23.47
2023-07-19T03:36:06.551Z,23.41
2023-07-19T03:38:33.230Z,23.34
2023-07-19T03:41:07.559Z,23.32
2023-07-19T03:43:34.064Z,23.32
2023-07-19T03:46:00.543Z,23.35
2023-07-19T03:48:26.977Z,23.43
2023-07-19T03:51:01.365Z,23.43
2023-07-19T03:53:29.154Z,23.41
2023-07-19T03:55:57.049Z,23.40
2023-07-19T03:58:27.044Z,23.37
2023-07-19T04:00:58.483Z,23.34
2023-07-19T04:03:26.071Z,23.33
2023-07-19T04:05:54.264Z,23.30
2023-07-19T04:08:21.255Z,23.32
2023-07-19T04:10:48.042Z,23.33
2023-07-19T04:13:14.813Z,23.31
2023-07-19T04:15:41.469Z,23.38
2023-07-19T04:18:07.985Z,23.36
2023-07-19T04:20:34.677Z,23.33
2023-07-19T04:23:01.146Z,23.28
2023-07-19T04:25:27.603Z,23.22
2023-07-19T04:27:54.900Z,23.21
2023-07-19T04:30:21.284Z,23.23
2023-07-19T04:32:47.972Z,23.32
2023-07-19T04:35:14.404Z,23.36
2023-07-19T04:37:41.408Z,23.24
2023-07-19T04:40:11.678Z,23.28
2023-07-19T04:42:38.086Z,23.35
2023-07-19T04:45:04.877Z,23.39
2023-07-19T04:47:31.277Z,23.49
2023-07-19T04:49:57.675Z,23.54
2023-07-19T04:52:24.079Z,23.66
2023-07-19T04:54:50.521Z,23.71
2023-07-19T04:57:17.123Z,23.72
2023-07-19T04:59:43.754Z,23.82
2023-07-19T05:02:10.186Z,23.89
2023-07-19T05:04:36.633Z,23.88
2023-07-19T05:07:03.063Z,23.82
2023-07-19T05:09:29.456Z,23.92
2023-07-19T05:11:55.823Z,23.85
2023-07-19T05:14:22.217Z,23.72
2023-07-19T05:16:48.781Z,23.61
2023-07-19T05:19:15.255Z,23.52
2023-07-19T05:21:41.700Z,23.60
2023-07-19T05:24:08.132Z,23.58
2023-07-19T05:26:34.608Z,23.56
2023-07-19T05:29:01.022Z,23.62
2023-07-19T05:31:27.602Z,23.48
2023-07-19T05:33:54.018Z,23.61
2023-07-19T05:36:20.504Z,23.54
2023-07-19T05:38:46.922Z,23.62
2023-07-19T05:41:13.336Z,23.65
2023-07-19T05:43:39.717Z,23.79
2023-07-19T05:46:10.118Z,23.93
2023-07-19T05:48:37.136Z,23.92
2023-07-19T05:51:05.953Z,23.84
2023-07-19T05:53:32.703Z,23.80
2023-07-19T05:55:59.098Z,23.90
2023-07-19T05:58:25.899Z,23.74
2023-07-19T06:00:52.391Z,23.76
2023-07-19T06:03:19.808Z,23.60
2023-07-19T06:05:47.055Z,23.64
2023-07-19T06:08:24.593Z,23.62
2023-07-19T06:10:52.365Z,23.66
2023-07-19T06:13:18.761Z,23.71
2023-07-19T06:15:45.277Z,23.67
2023-07-19T06:18:11.723Z,23.66
2023-07-19T06:20:38.607Z,23.60
2023-07-19T06:23:05.160Z,23.54
2023-07-19T06:25:32.338Z,23.56
2023-07-19T06:27:58.762Z,23.56
2023-07-19T06:30:25.234Z,23.51
2023-07-19T06:32:51.758Z,23.56
2023-07-19T06:35:18.290Z,23.53
2023-07-19T06:37:44.783Z,23.61
2023-07-19T06:40:11.523Z,23.81
2023-07-19T06:42:38.069Z,23.94
2023-07-19T06:45:04.864Z,24.11
2023-07-19T06:47:31.340Z,24.19
2023-07-19T06:49:58.472Z,24.19
2023-07-19T06:52:27.161Z,24.30
2023-07-19T06:54:55.469Z,24.44
2023-07-19T06:57:22.410Z,24.49
2023-07-19T06:59:50.789Z,24.54
2023-07-19T07:02:20.334Z,24.45
2023-07-19T07:04:47.461Z,24.48
2023-07-19T07:07:16.152Z,24.34
2023-07-19T07:09:43.394Z,24.35
2023-07-19T07:12:11.864Z,24.31
2023-07-19T07:14:39.040Z,24.34
2023-07-19T07:17:09.393Z,24.37
2023-07-19T07:19:36.234Z,24.43
2023-07-19T07:22:02.826Z,24.40
2023-07-19T07:24:29.208Z,24.44
2023-07-19T07:26:55.776Z,24.63
2023-07-19T07:29:22.179Z,24.61
2023-07-19T07:31:48.574Z,24.58
2023-07-19T07:34:15.253Z,24.57
2023-07-19T07:36:42.159Z,24.60
2023-07-19T07:39:08.574Z,24.68
2023-07-19T07:41:35.536Z,24.72
2023-07-19T07:44:01.965Z,24.80
2023-07-19T07:46:30.471Z,24.89
2023-07-19T07:49:00.464Z,25.15
2023-07-19T07:51:30.475Z,25.43
2023-07-19T07:53:57.053Z,25.47
2023-07-19T07:56:25.032Z,25.50
2023-07-19T07:58:51.528Z,25.53
2023-07-19T08:01:17.995Z,25.66
2023-07-19T08:03:44.634Z,25.72
2023-07-19T08:06:11.057Z,25.74
2023-07-19T08:08:37.495Z,25.75
2023-07-19T08:11:06.239Z,25.73
2023-07-19T08:13:32.698Z,25.63
2023-07-19T08:15:59.137Z,25.74
2023-07-19T08:18:25.789Z,25.99
2023-07-19T08:20:53.150Z,26.02
2023-07-19T08:23:20.464Z,25.99
2023-07-19T08:25:47.030Z,25.78
2023-07-19T08:28:13.493Z,25.69
2023-07-19T08:30:40.123Z,25.71
2023-07-19T08:33:09.664Z,25.66
2023-07-19T08:35:36.317Z,25.62
2023-07-19T08:38:02.781Z,25.68
2023-07-19T08:40:32.817Z,25.73
2023-07-19T08:42:59.302Z,25.74
2023-07-19T08:45:26.908Z,25.85
2023-07-19T08:47:53.609Z,25.84
2023-07-19T08:50:21.881Z,25.88
2023-07-19T08:52:48.394Z,26.05
2023-07-19T08:55:14.831Z,26.08
2023-07-19T08:57:44.292Z,26.20
2023-07-19T09:00:11.318Z,26.23
2023-07-19T09:02:37.833Z,26.14
2023-07-19T09:05:05.810Z,26.15
2023-07-19T09:07:33.050Z,26.18
2023-07-19T09:09:59.482Z,26.09
2023-07-19T09:12:26.582Z,26.20
2023-07-19T09:14:52.980Z,26.13
2023-07-19T09:17:21.432Z,26.10
2023-07-19T09:19:48.246Z,26.19
2023-07-19T09:22:17.499Z,26.11
2023-07-19T09:25:02.332Z,26.21
2023-07-19T09:27:29.245Z,26.29
2023-07-19T09:29:55.654Z,26.40
2023-07-19T09:32:24.100Z,26.43
2023-07-19T09:34:55.237Z,26.44
2023-07-19T09:37:26.179Z,26.58
2023-07-19T09:39:55.744Z,26.56
2023-07-19T09:42:22.259Z,26.73
2023-07-19T09:44:49.896Z,26.84
2023-07-19T09:47:28.047Z,26.76
2023-07-19T09:49:56.189Z,26.78
2023-07-19T09:52:25.797Z,26.92
2023-07-19T09:54:54.541Z,26.84
2023-07-19T09:57:24.389Z,26.94
2023-07-19T09:59:52.501Z,26.95
2023-07-19T10:02:19.374Z,27.02
2023-07-19T10:04:48.675Z,27.12
2023-07-19T10:07:20.443Z,27.24
2023-07-19T10:09:50.950Z,27.24
2023-07-19T10:12:17.380Z,27.20
2023-07-19T10:14:54.113Z,26.96
2023-07-19T10:17:21.877Z,27.07
2023-07-19T10:19:58.190Z,26.94
2023-07-19T10:22:47.674Z,26.77
2023-07-19T10:25:23.380Z,26.89
2023-07-19T10:27:58.225Z,26.94
2023-07-19T10:30:43.767Z,27.12
2023-07-19T10:33:10.295Z,27.00
2023-07-19T10:35:36.922Z,27.18
2023-07-19T10:38:04.400Z,27.14
2023-07-19T10:40:32.464Z,27.30
2023-07-19T10:42:58.970Z,27.46
2023-07-19T10:45:26.970Z,27.46
2023-07-19T10:47:53.575Z,27.49
2023-07-19T10:50:25.287Z,27.49
2023-07-19T10:52:52.197Z,27.63
2023-07-19T10:55:42.788Z,27.60
2023-07-19T10:58:06.739Z,27.61
2023-07-19T11:00:36.425Z,27.58
2023-07-19T11:03:03.017Z,27.41
2023-07-19T11:05:29.536Z,27.42
2023-07-19T11:07:55.965Z,27.35
2023-07-19T11:10:22.775Z,27.51
2023-07-19T11:12:49.295Z,27.30
2023-07-19T11:15:15.743Z,27.21
2023-07-19T11:17:42.269Z,27.27
2023-07-19T11:20:09.583Z,27.44
2023-07-19T11:22:36.122Z,27.62
2023-07-19T11:25:10.931Z,27.76
2023-07-19T11:27:38.025Z,27.79
2023-07-19T11:30:05.440Z,27.83
2023-07-19T11:32:31.963Z,27.83
2023-07-19T11:34:59.560Z,27.81
2023-07-19T11:37:31.628Z,27.87
2023-07-19T11:39:59.621Z,27.88
2023-07-19T11:42:42.719Z,27.74
2023-07-19T11:45:20.742Z,27.83
2023-07-19T11:47:51.392Z,27.97
2023-07-19T11:50:17.836Z,28.17
2023-07-19T11:53:03.152Z,28.16
2023-07-19T11:55:30.733Z,28.18
2023-07-19T11:58:04.069Z,28.29
2023-07-19T12:00:33.321Z,28.23
2023-07-19T12:03:00.078Z,28.45
2023-07-19T12:05:27.436Z,28.52
2023-07-19T12:07:53.921Z,28.59
2023-07-19T12:10:21.822Z,28.65
2023-07-19T12:12:52.248Z,28.65
2023-07-19T12:15:19.534Z,28.26
2023-07-19T12:17:46.121Z,28.22
2023-07-19T12:20:13.084Z,28.18
2023-07-19T12:22:41.782Z,28.55
2023-07-19T12:25:08.924Z,28.34
2023-07-19T12:27:36.172Z,28.29
2023-07-19T12:30:04.678Z,28.33
2023-07-19T12:32:35.720Z,28.37
2023-07-19T12:35:02.842Z,28.31
2023-07-19T12:37:29.367Z,28.37
2023-07-19T12:39:55.806Z,28.66
2023-07-19T12:42:22.305Z,28.94
2023-07-19T12:44:48.749Z,29.03
2023-07-19T12:47:16.602Z,28.81
2023-07-19T12:49:42.996Z,28.81
2023-07-19T12:52:12.409Z,28.66
2023-07-19T12:54:39.375Z,28.82
2023-07-19T12:57:07.225Z,28.88
2023-07-19T12:59:33.742Z,28.73
2023-07-19T13:02:00.597Z,28.70
2023-07-19T13:04:27.210Z,28.73
2023-07-19T13:06:58.317Z,28.75
2023-07-19T13:09:24.936Z,28.70
2023-07-19T13:11:51.338Z,28.84
2023-07-19T13:14:17.964Z,28.95
2023-07-19T13:16:44.547Z,29.01
2023-07-19T13:19:11.146Z,28.91
2023-07-19T13:21:37.790Z,28.94
2023-07-19T13:24:04.780Z,29.08
2023-07-19T13:26:31.516Z,29.05
2023-07-19T13:28:58.264Z,29.21
2023-07-19T13:31:25.982Z,29.45
2023-07-19T13:33:52.478Z,29.53
2023-07-19T13:38:48.539Z,29.78
2023-07-19T13:41:14.933Z,29.73
2023-07-19T13:43:42.099Z,29.75
2023-07-19T13:46:08.658Z,29.57
2023-07-19T13:48:35.155Z,29.73
2023-07-19T13:51:04.198Z,29.42
2023-07-19T13:53:31.185Z,29.35
2023-07-19T13:55:57.608Z,29.71
2023-07-19T13:58:24.036Z,29.89
2023-07-19T14:00:51.245Z,29.42
2023-07-19T14:03:18.367Z,29.46
2023-07-19T14:05:45.486Z,29.48
2023-07-19T14:08:11.882Z,29.60
2023-07-19T14:10:38.382Z,29.44
2023-07-19T14:13:04.968Z,29.72
2023-07-19T14:15:31.367Z,29.95
2023-07-19T14:17:58.002Z,29.89
2023-07-19T14:20:25.040Z,30.09
2023-07-19T14:22:51.596Z,30.03
2023-07-19T14:25:17.992Z,29.66
2023-07-19T14:27:44.427Z,29.90
2023-07-19T14:30:11.094Z,30.25
2023-07-19T14:32:38.773Z,30.20
2023-07-19T14:35:06.155Z,30.10
2023-07-19T14:37:32.665Z,29.73
2023-07-19T14:39:59.453Z,29.76
2023-07-19T14:42:27.420Z,29.73
2023-07-19T14:44:53.950Z,29.54
2023-07-19T14:47:20.597Z,29.68
2023-07-19T14:49:47.017Z,29.43
2023-07-19T14:52:13.519Z,29.75
2023-07-19T14:54:41.436Z,29.97
2023-07-19T14:57:08.116Z,30.27
2023-07-19T14:59:34.576Z,30.49
2023-07-19T15:02:01.645Z,30.40
2023-07-19T15:04:28.453Z,30.51
2023-07-19T15:06:55.032Z,30.66
2023-07-19T15:09:21.498Z,30.91
2023-07-19T15:11:49.057Z,30.72
2023-07-19T15:14:16.114Z,30.72
2023-07-19T15:16:42.584Z,30.60
2023-07-19T15:19:09.434Z,30.63
2023-07-19T15:21:35.965Z,30.52
2023-07-19T15:24:02.465Z,30.44
2023-07-19T15:26:34.577Z,30.48
2023-07-19T15:29:02.239Z,30.34
2023-07-19T15:31:29.677Z,30.40
2023-07-19T15:33:56.156Z,30.33
2023-07-19T15:36:23.962Z,30.33
2023-07-19T15:38:55.720Z,30.65
2023-07-19T15:41:24.183Z,30.68
2023-07-19T15:43:51.074Z,30.55
2023-07-19T15:46:17.624Z,30.37
2023-07-19T15:48:44.097Z,30.17
2023-07-19T15:51:11.719Z,30.00
2023-07-19T15:53:38.297Z,29.85
2023-07-19T15:56:08.964Z,29.86
2023-07-19T15:58:35.586Z,29.59
2023-07-19T16:01:05.373Z,29.58
2023-07-19T16:03:32.525Z,29.75
2023-07-19T16:05:59.008Z,29.89
2023-07-19T16:08:25.432Z,29.66
2023-07-19T16:10:52.470Z,29.57
2023-07-19T16:13:18.860Z,29.61
2023-07-19T16:15:45.578Z,29.94
2023-07-19T16:18:12.178Z,29.97
2023-07-19T16:20:38.688Z,29.69
2023-07-19T16:23:05.229Z,29.55
2023-07-19T16:25:31.930Z,29.89
2023-07-19T16:27:58.327Z,30.24
2023-07-19T16:30:24.832Z,30.17
2023-07-19T16:32:51.289Z,29.99
2023-07-19T16:35:18.046Z,30.00
2023-07-19T16:37:44.634Z,29.73
2023-07-19T16:40:11.409Z,29.64
2023-07-19T16:42:37.793Z,29.76
2023-07-19T16:45:07.810Z,30.03
2023-07-19T16:47:36.065Z,30.48
2023-07-19T16:50:03.532Z,30.45
2023-07-19T16:52:30.392Z,30.59
2023-07-19T16:54:56.913Z,29.83
2023-07-19T16:57:23.357Z,29.99
2023-07-19T16:59:56.707Z,30.11
2023-07-19T17:02:33.491Z,30.51
2023-07-19T17:05:00.076Z,30.34
2023-07-19T17:07:27.096Z,30.35
2023-07-19T17:09:54.738Z,30.23
2023-07-19T17:12:21.593Z,29.51
2023-07-19T17:14:47.998Z,29.64
2023-07-19T17:17:14.509Z,29.70
2023-07-19T17:19:42.432Z,29.34
2023-07-19T17:22:09.542Z,29.61
2023-07-19T17:24:36.077Z,30.09
2023-07-19T17:27:02.598Z,29.92
2023-07-19T17:29:29.024Z,29.57
2023-07-19T17:31:55.540Z,30.01
2023-07-19T17:34:21.997Z,29.63
2023-07-19T17:36:48.537Z,29.28
2023-07-19T17:39:14.941Z,29.40
2023-07-19T17:41:41.356Z,29.53
2023-07-19T17:44:08.351Z,28.98
2023-07-19T17:46:40.862Z,29.36
2023-07-19T17:49:07.492Z,29.40
2023-07-19T17:51:34.124Z,29.27
2023-07-19T17:54:00.892Z,28.75
2023-07-19T17:56:27.350Z,28.90
2023-07-19T17:58:53.816Z,28.99
2023-07-19T18:01:22.300Z,28.87
2023-07-19T18:03:49.711Z,28.48
2023-07-19T18:06:16.496Z,28.29
2023-07-19T18:08:42.942Z,28.05
2023-07-19T18:11:09.411Z,27.97
2023-07-19T18:13:36.136Z,27.39
2023-07-19T18:16:02.691Z,27.51
2023-07-19T18:18:29.579Z,27.78
2023-07-19T18:20:56.010Z,27.77
2023-07-19T18:23:22.474Z,27.93
2023-07-19T18:25:48.896Z,27.95
2023-07-19T18:28:16.121Z,27.81
2023-07-19T18:30:43.394Z,27.51
2023-07-19T18:33:12.638Z,27.52
2023-07-19T18:35:40.662Z,27.70
2023-07-19T18:38:07.293Z,27.82
2023-07-19T18:40:33.728Z,27.69
2023-07-19T18:43:00.233Z,27.54
2023-07-19T18:45:26.627Z,27.40
2023-07-19T18:47:53.158Z,27.35
2023-07-19T18:50:19.652Z,27.13
2023-07-19T18:52:47.515Z,27.22
2023-07-19T18:55:13.986Z,26.88
2023-07-19T18:57:40.429Z,26.67
2023-07-19T19:00:08.288Z,26.73
2023-07-19T19:02:36.062Z,26.69
2023-07-19T19:05:03.245Z,26.77
2023-07-19T19:07:29.658Z,26.74
2023-07-19T19:09:56.147Z,26.78
2023-07-19T19:12:22.605Z,26.77
2023-07-19T19:14:49.018Z,26.55
2023-07-19T19:17:15.476Z,26.41
2023-07-19T19:19:41.900Z,26.38
2023-07-19T19:22:08.383Z,26.23
2023-07-19T19:24:34.904Z,26.37
2023-07-19T19:27:01.983Z,26.21
2023-07-19T19:29:28.605Z,26.11
2023-07-19T19:31:55.356Z,26.11
2023-07-19T19:34:21.848Z,26.06
2023-07-19T19:36:48.240Z,26.24
2023-07-19T19:39:27.761Z,26.10
2023-07-19T19:41:55.925Z,26.00
2023-07-19T19:44:22.384Z,25.86
2023-07-19T19:46:48.825Z,26.00
2023-07-19T19:49:15.207Z,25.82
2023-07-19T19:51:42.667Z,25.87
2023-07-19T19:54:10.268Z,25.85
2023-07-19T19:56:36.680Z,25.64
2023-07-19T19:59:03.093Z,25.45
2023-07-19T20:01:33.238Z,25.48
2023-07-19T20:06:29.890Z,25.39
2023-07-19T20:09:02.304Z,25.34
2023-07-19T20:11:29.303Z,25.52
2023-07-19T20:13:55.806Z,25.62
2023-07-19T20:16:22.810Z,25.59
2023-07-19T20:18:49.314Z,25.56
2023-07-19T20:21:16.513Z,25.40
2023-07-19T20:23:43.177Z,25.53
2023-07-19T20:26:14.146Z,25.62
2023-07-19T20:28:41.570Z,25.46
2023-07-19T20:31:08.044Z,25.48
2023-07-19T20:33:35.397Z,25.55
2023-07-19T20:43:30.552Z,25.29
2023-07-19T20:45:59.391Z,25.32
2023-07-19T20:48:26.129Z,25.15
2023-07-19T20:50:53.294Z,25.11
2023-07-19T20:53:19.720Z,25.21
2023-07-19T20:55:46.247Z,25.32
2023-07-19T20:58:12.664Z,25.33
2023-07-19T21:00:39.178Z,25.45
2023-07-19T21:03:05.891Z,25.32
2023-07-19T21:05:33.856Z,25.21
2023-07-19T21:08:00.389Z,25.26
2023-07-19T21:10:27.365Z,25.37
2023-07-19T21:12:54.539Z,25.24
2023-07-19T21:15:21.026Z,25.14
2023-07-19T21:17:47.578Z,25.17
2023-07-19T21:20:14.100Z,25.15
2023-07-19T21:22:40.870Z,25.12
2023-07-19T21:25:15.686Z,24.98
2023-07-19T21:27:42.721Z,24.98
2023-07-19T21:30:10.852Z,25.04
2023-07-19T21:32:37.350Z,25.04
2023-07-19T21:35:04.024Z,25.16
2023-07-19T21:37:30.411Z,25.12
2023-07-19T21:39:56.850Z,25.23
2023-07-19T21:42:23.449Z,25.39
2023-07-19T21:44:50.342Z,25.33
2023-07-19T21:47:16.918Z,25.13
2023-07-19T21:49:43.782Z,24.99
2023-07-19T21:52:11.071Z,25.02
2023-07-19T21:54:37.928Z,25.05
2023-07-19T21:57:04.403Z,24.96
2023-07-19T21:59:30.828Z,25.02
2023-07-19T22:01:57.196Z,25.05
2023-07-19T22:04:23.953Z,24.79
2023-07-19T22:06:50.382Z,24.91
2023-07-19T22:09:16.855Z,24.95
2023-07-19T22:11:43.752Z,25.09
2023-07-19T22:14:11.700Z,25.05
2023-07-19T22:16:39.324Z,25.00
2023-07-19T22:19:06.099Z,25.00
2023-07-19T22:21:32.515Z,24.97
2023-07-19T22:23:58.923Z,24.93
2023-07-19T22:26:25.756Z,24.92
2023-07-19T22:29:02.509Z,24.94
2023-07-19T22:31:29.246Z,24.96
2023-07-19T22:33:55.774Z,24.96
2023-07-19T22:36:22.666Z,24.94
2023-07-19T22:38:49.424Z,24.89
2023-07-19T22:41:18.661Z,24.92
2023-07-19T22:43:45.096Z,24.91
2023-07-19T22:46:11.945Z,24.91
2023-07-19T22:48:39.533Z,24.93
2023-07-19T22:51:06.110Z,24.90
2023-07-19T22:53:35.401Z,24.88
2023-07-19T22:56:02.827Z,24.67
2023-07-19T22:58:30.832Z,24.59
2023-07-19T23:00:58.450Z,24.47
2023-07-19T23:03:25.260Z,24.43
2023-07-19T23:05:52.864Z,24.36
2023-07-19T23:08:20.141Z,24.25
2023-07-19T23:10:47.476Z,24.23
2023-07-19T23:13:14.276Z,24.25
2023-07-19T23:15:40.760Z,24.29
2023-07-19T23:18:07.208Z,24.33
2023-07-19T23:20:33.896Z,24.33
2023-07-19T23:23:00.904Z,24.26
2023-07-19T23:25:27.501Z,24.30
2023-07-19T23:27:55.562Z,24.24
2023-07-19T23:30:22.016Z,24.22
2023-07-19T23:32:51.646Z,24.24
2023-07-19T23:35:18.184Z,24.21
2023-07-19T23:37:44.574Z,24.24
2023-07-19T23:40:11.458Z,24.26
2023-07-19T23:42:37.862Z,24.32
2023-07-19T23:45:06.824Z,24.31
2023-07-19T23:47:33.348Z,24.25
2023-07-19T23:49:59.736Z,24.30
2023-07-19T23:52:26.492Z,24.27
2023-07-19T23:54:53.056Z,24.33
2023-07-19T23:57:19.464Z,24.41
2023-07-19T23:59:45.969Z,24.40
